createdAt,value
2022-11-17T00:00:30.229Z,5.60
2022-11-17T00:02:58.525Z,5.50
2022-11-17T00:05:26.765Z,5.50
2022-11-17T00:07:55.072Z,5.50
2022-11-17T00:10:23.346Z,5.50
2022-11-17T00:13:10.901Z,5.40
2022-11-17T00:15:39.257Z,5.30
2022-11-17T00:18:33.841Z,5.30
2022-11-17T00:21:23.815Z,5.30
2022-11-17T00:23:52.258Z,5.30
2022-11-17T00:26:21.410Z,5.30
2022-11-17T00:28:53.634Z,5.30
2022-11-17T00:31:39.457Z,5.30
2022-11-17T00:34:07.823Z,5.30
2022-11-17T00:36:38.860Z,5.30
2022-11-17T00:39:07.289Z,5.30
2022-11-17T00:41:35.872Z,5.30
2022-11-17T00:44:06.223Z,5.30
2022-11-17T00:46:34.769Z,5.20
2022-11-17T00:49:03.415Z,5.20
2022-11-17T00:51:32.010Z,5.20
2022-11-17T00:54:00.337Z,5.20
2022-11-17T00:56:28.753Z,5.20
2022-11-17T00:58:57.110Z,5.10
2022-11-17T01:01:26.974Z,5.10
2022-11-17T01:04:02.933Z,5.10
2022-11-17T01:06:32.690Z,5.10
2022-11-17T01:09:01.473Z,5.10
2022-11-17T01:11:29.833Z,5.10
2022-11-17T01:13:59.317Z,5.10
2022-11-17T01:16:29.448Z,5.10
2022-11-17T01:18:59.773Z,5.10
2022-11-17T01:21:28.969Z,5.10
2022-11-17T01:23:58.780Z,5.10
2022-11-17T01:26:28.605Z,5.00
2022-11-17T01:28:56.941Z,5.10
2022-11-17T01:31:26.816Z,5.10
2022-11-17T01:33:56.483Z,5.10
2022-11-17T01:36:27.051Z,5.10
2022-11-17T01:38:55.413Z,5.00
2022-11-17T01:41:25.304Z,5.00
2022-11-17T01:43:54.859Z,5.10
2022-11-17T01:46:30.340Z,5.00
2022-11-17T01:49:03.443Z,5.00
2022-11-17T01:51:32.287Z,5.00
2022-11-17T01:54:00.883Z,5.00
2022-11-17T01:56:32.647Z,5.00
2022-11-17T01:59:06.490Z,5.00
2022-11-17T02:01:34.818Z,5.00
2022-11-17T02:04:04.884Z,5.00
2022-11-17T02:06:35.284Z,5.00
2022-11-17T02:09:04.798Z,5.00
2022-11-17T02:11:35.998Z,5.00
2022-11-17T02:14:04.938Z,5.00
2022-11-17T02:16:33.249Z,5.00
2022-11-17T02:19:01.538Z,5.00
2022-11-17T02:22:19.642Z,5.00
2022-11-17T02:25:03.662Z,5.00
2022-11-17T02:27:51.903Z,4.90
2022-11-17T02:30:20.590Z,4.90
2022-11-17T02:32:59.694Z,4.90
2022-11-17T02:35:31.691Z,4.90
2022-11-17T02:38:06.797Z,4.90
2022-11-17T02:40:37.226Z,4.90
2022-11-17T02:43:27.543Z,5.00
2022-11-17T02:45:58.894Z,4.90
2022-11-17T02:48:34.087Z,4.90
2022-11-17T02:51:02.497Z,4.90
2022-11-17T02:53:30.795Z,4.90
2022-11-17T02:56:01.864Z,4.90
2022-11-17T02:58:31.532Z,4.90
2022-11-17T03:01:27.095Z,4.90
2022-11-17T03:04:12.637Z,4.90
2022-11-17T03:06:46.397Z,4.90
2022-11-17T03:09:19.836Z,4.90
2022-11-17T03:11:51.846Z,4.90
2022-11-17T03:14:27.457Z,4.90
2022-11-17T03:16:58.383Z,4.80
2022-11-17T03:19:29.953Z,4.90
2022-11-17T03:22:01.484Z,4.80
2022-11-17T03:24:32.655Z,4.80
2022-11-17T03:27:04.137Z,4.80
2022-11-17T03:29:33.922Z,4.80
2022-11-17T03:32:03.618Z,4.80
2022-11-17T03:34:35.547Z,4.80
2022-11-17T03:37:04.972Z,4.80
2022-11-17T03:39:34.263Z,4.90
2022-11-17T03:42:11.335Z,4.80
2022-11-17T03:44:41.526Z,4.80
2022-11-17T03:47:09.798Z,4.80
2022-11-17T03:49:42.837Z,4.80
2022-11-17T03:52:11.114Z,4.80
2022-11-17T03:54:39.378Z,4.80
2022-11-17T03:57:10.841Z,4.80
2022-11-17T03:59:45.395Z,4.80
2022-11-17T04:02:16.150Z,4.80
2022-11-17T04:05:01.731Z,4.90
2022-11-17T04:07:30.136Z,4.80
2022-11-17T04:09:58.403Z,4.90
2022-11-17T04:12:44.095Z,4.80
2022-11-17T04:15:31.235Z,4.90
2022-11-17T04:17:59.633Z,4.90
2022-11-17T04:20:35.843Z,4.80
2022-11-17T04:23:11.319Z,4.90
2022-11-17T04:25:58.534Z,4.90
2022-11-17T04:28:39.508Z,4.90
2022-11-17T04:31:14.187Z,4.80
2022-11-17T04:33:43.629Z,4.90
2022-11-17T04:36:12.875Z,4.90
2022-11-17T04:38:42.972Z,4.90
2022-11-17T04:41:29.818Z,4.90
2022-11-17T04:43:58.188Z,4.80
2022-11-17T04:46:28.170Z,4.80
2022-11-17T04:48:57.853Z,4.80
2022-11-17T04:51:26.677Z,4.80
2022-11-17T04:53:55.023Z,4.90
2022-11-17T04:56:23.898Z,4.80
2022-11-17T04:58:52.605Z,4.90
2022-11-17T05:01:22.300Z,4.90
2022-11-17T05:03:53.174Z,4.90
2022-11-17T05:06:23.978Z,4.90
2022-11-17T05:08:55.488Z,4.90
2022-11-17T05:11:41.518Z,4.90
2022-11-17T05:14:09.986Z,4.90
2022-11-17T05:16:55.667Z,4.90
2022-11-17T05:19:27.632Z,4.90
2022-11-17T05:21:56.013Z,4.90
2022-11-17T05:24:23.388Z,4.90
2022-11-17T05:26:51.803Z,5.00
2022-11-17T05:29:21.714Z,5.00
2022-11-17T05:31:50.322Z,5.00
2022-11-17T05:34:18.848Z,5.00
2022-11-17T05:36:48.758Z,5.00
2022-11-17T05:39:16.988Z,5.00
2022-11-17T05:41:45.299Z,5.00
2022-11-17T05:44:14.307Z,5.00
2022-11-17T05:46:43.354Z,5.00
2022-11-17T05:49:11.679Z,5.00
2022-11-17T05:51:40.663Z,5.00
2022-11-17T05:54:10.557Z,5.00
2022-11-17T05:56:40.806Z,5.10
2022-11-17T05:59:23.324Z,5.10
2022-11-17T06:01:57.764Z,5.10
2022-11-17T06:04:26.066Z,5.10
2022-11-17T06:06:58.890Z,5.10
2022-11-17T06:09:29.792Z,5.10
2022-11-17T06:12:02.583Z,5.10
2022-11-17T06:14:34.242Z,5.10
2022-11-17T06:17:04.752Z,5.10
2022-11-17T06:19:35.932Z,5.10
2022-11-17T06:22:12.167Z,5.10
2022-11-17T06:24:42.312Z,5.20
2022-11-17T06:27:10.887Z,5.20
2022-11-17T06:29:43.991Z,5.20
2022-11-17T06:32:13.298Z,5.20
2022-11-17T06:34:41.745Z,5.20
2022-11-17T06:37:12.065Z,5.20
2022-11-17T06:39:41.742Z,5.20
2022-11-17T06:42:10.019Z,5.20
2022-11-17T06:44:38.335Z,5.20
2022-11-17T06:47:06.911Z,5.20
2022-11-17T06:49:35.220Z,5.20
2022-11-17T06:52:03.483Z,5.20
2022-11-17T06:54:32.124Z,5.20
2022-11-17T06:57:01.920Z,5.20
2022-11-17T06:59:30.327Z,5.20
2022-11-17T07:01:58.648Z,5.30
2022-11-17T07:04:26.929Z,5.30
2022-11-17T07:06:55.291Z,5.30
2022-11-17T07:09:25.391Z,5.30
2022-11-17T07:11:53.681Z,5.30
2022-11-17T07:14:23.349Z,5.30
2022-11-17T07:16:52.201Z,5.30
2022-11-17T07:19:20.629Z,5.40
2022-11-17T07:21:48.903Z,5.30
2022-11-17T07:24:17.252Z,5.30
2022-11-17T07:26:45.621Z,5.40
2022-11-17T07:29:13.929Z,5.40
2022-11-17T07:31:43.841Z,5.40
2022-11-17T07:34:12.360Z,5.40
2022-11-17T07:36:40.708Z,5.40
2022-11-17T07:39:09.141Z,5.40
2022-11-17T07:41:37.460Z,5.50
2022-11-17T07:44:06.120Z,5.50
2022-11-17T07:46:34.431Z,5.50
2022-11-17T07:49:04.194Z,5.50
2022-11-17T07:51:32.513Z,5.50
2022-11-17T07:54:00.830Z,5.50
2022-11-17T07:56:29.186Z,5.50
2022-11-17T07:58:57.547Z,5.60
2022-11-17T08:01:27.578Z,5.60
2022-11-17T08:03:56.031Z,5.60
2022-11-17T08:06:25.773Z,5.60
2022-11-17T08:08:54.507Z,5.60
2022-11-17T08:11:22.914Z,5.60
2022-11-17T08:13:51.309Z,5.60
2022-11-17T08:16:19.680Z,5.60
2022-11-17T08:18:52.049Z,5.60
2022-11-17T08:21:21.150Z,5.70
2022-11-17T08:23:53.111Z,5.70
2022-11-17T08:26:21.896Z,5.70
2022-11-17T08:28:53.683Z,5.70
2022-11-17T08:31:26.398Z,5.70
2022-11-17T08:33:54.697Z,5.70
2022-11-17T08:36:22.990Z,5.70
2022-11-17T08:38:52.713Z,5.80
2022-11-17T08:41:21.818Z,5.80
2022-11-17T08:43:51.741Z,5.80
2022-11-17T08:46:20.155Z,5.80
2022-11-17T08:48:52.238Z,5.80
2022-11-17T08:51:23.993Z,5.80
2022-11-17T08:53:53.686Z,5.90
2022-11-17T08:56:22.045Z,5.90
2022-11-17T08:58:50.350Z,5.90
2022-11-17T09:01:18.797Z,5.90
2022-11-17T09:03:48.441Z,5.90
2022-11-17T09:06:17.410Z,5.90
2022-11-17T09:08:56.487Z,5.90
2022-11-17T09:11:26.354Z,5.90
2022-11-17T09:13:54.722Z,5.90
2022-11-17T09:16:24.028Z,5.90
2022-11-17T09:18:56.973Z,5.90
2022-11-17T09:21:26.072Z,5.90
2022-11-17T09:23:54.813Z,5.90
2022-11-17T09:26:23.236Z,5.90
2022-11-17T09:28:52.966Z,5.90
2022-11-17T09:31:22.756Z,5.90
2022-11-17T09:33:51.127Z,5.90
2022-11-17T09:36:19.508Z,5.90
2022-11-17T09:38:48.042Z,5.90
2022-11-17T09:41:27.415Z,5.90
2022-11-17T09:44:04.108Z,6.00
2022-11-17T09:46:42.632Z,5.90
2022-11-17T09:49:16.041Z,5.90
2022-11-17T09:51:45.656Z,5.90
2022-11-17T09:54:21.655Z,5.90
2022-11-17T09:56:49.988Z,6.00
2022-11-17T09:59:20.748Z,6.00
2022-11-17T10:01:49.109Z,6.00
2022-11-17T10:04:18.599Z,6.00
2022-11-17T10:06:48.388Z,6.00
2022-11-17T10:09:25.739Z,5.90
2022-11-17T10:11:54.465Z,5.90
2022-11-17T10:14:24.189Z,5.90
2022-11-17T10:16:53.786Z,5.90
2022-11-17T10:19:23.452Z,5.90
2022-11-17T10:21:54.848Z,5.90
2022-11-17T10:24:37.959Z,6.00
2022-11-17T10:27:08.510Z,6.00
2022-11-17T10:29:38.217Z,5.90
2022-11-17T10:32:07.807Z,6.00
2022-11-17T10:34:41.491Z,5.90
2022-11-17T10:37:26.980Z,6.00
2022-11-17T10:40:24.805Z,6.00
2022-11-17T10:43:06.042Z,5.90
2022-11-17T10:45:35.801Z,6.00
2022-11-17T10:48:23.184Z,6.00
2022-11-17T10:50:56.295Z,6.00
2022-11-17T10:53:41.353Z,5.90
2022-11-17T10:56:15.330Z,5.90
2022-11-17T10:59:05.520Z,6.00
2022-11-17T11:01:36.837Z,5.90
2022-11-17T11:04:06.329Z,6.00
2022-11-17T11:06:35.089Z,6.00
2022-11-17T11:09:05.870Z,6.00
2022-11-17T11:11:45.275Z,6.00
2022-11-17T11:14:21.138Z,6.00
2022-11-17T11:16:51.631Z,6.00
2022-11-17T11:19:21.058Z,6.10
2022-11-17T11:22:09.888Z,6.10
2022-11-17T11:24:43.900Z,6.00
2022-11-17T11:27:29.437Z,6.10
2022-11-17T11:30:03.214Z,6.10
2022-11-17T11:32:42.345Z,6.10
2022-11-17T11:35:33.443Z,6.10
2022-11-17T11:38:10.693Z,6.20
2022-11-17T11:40:39.924Z,6.20
2022-11-17T11:43:20.284Z,6.10
2022-11-17T11:45:52.025Z,6.20
2022-11-17T11:48:24.093Z,6.20
2022-11-17T11:50:58.741Z,6.10
2022-11-17T11:53:33.953Z,6.10
2022-11-17T11:56:15.700Z,6.10
2022-11-17T11:58:48.649Z,6.10
2022-11-17T12:01:18.877Z,6.10
2022-11-17T12:03:58.403Z,6.10
2022-11-17T12:06:43.752Z,6.10
2022-11-17T12:09:50.349Z,6.10
2022-11-17T12:12:21.677Z,6.20
2022-11-17T12:15:11.969Z,6.20
2022-11-17T12:17:55.722Z,6.20
2022-11-17T12:20:57.057Z,6.20
2022-11-17T12:23:51.104Z,6.30
2022-11-17T12:26:27.764Z,6.30
2022-11-17T12:29:30.808Z,6.20
2022-11-17T12:32:00.984Z,6.20
2022-11-17T12:34:32.286Z,6.20
2022-11-17T12:37:32.180Z,6.20
2022-11-17T12:40:08.003Z,6.30
2022-11-17T12:42:36.868Z,6.30
2022-11-17T12:45:12.588Z,6.30
2022-11-17T12:47:42.123Z,6.20
2022-11-17T12:50:53.724Z,6.20
2022-11-17T12:53:35.943Z,6.10
2022-11-17T12:56:28.784Z,6.10
2022-11-17T12:59:19.545Z,6.20
2022-11-17T13:01:57.462Z,6.20
2022-11-17T13:04:34.008Z,6.20
2022-11-17T13:07:03.353Z,6.20
2022-11-17T13:09:34.890Z,6.20
2022-11-17T13:12:05.167Z,6.20
2022-11-17T13:14:34.199Z,6.10
2022-11-17T13:17:02.846Z,6.10
2022-11-17T13:19:36.838Z,6.10
2022-11-17T13:22:06.847Z,6.20
2022-11-17T13:28:43.067Z,6.20
2022-11-17T13:31:14.395Z,6.20
2022-11-17T13:33:42.743Z,6.20
2022-11-17T13:36:18.155Z,6.20
2022-11-17T13:38:50.292Z,6.20
2022-11-17T13:41:18.869Z,6.10
2022-11-17T13:43:48.823Z,6.10
2022-11-17T13:46:17.110Z,6.20
2022-11-17T13:48:46.495Z,6.20
2022-11-17T13:51:38.686Z,6.20
2022-11-17T13:54:14.931Z,6.10
2022-11-17T13:56:50.120Z,6.10
2022-11-17T13:59:26.144Z,6.10
2022-11-17T14:02:24.319Z,6.10
2022-11-17T14:05:21.667Z,6.10
2022-11-17T14:07:50.549Z,6.00
2022-11-17T14:10:31.400Z,6.00
2022-11-17T14:13:22.001Z,6.00
2022-11-17T14:16:00.584Z,6.00
2022-11-17T14:18:34.108Z,6.00
2022-11-17T14:21:14.667Z,5.90
2022-11-17T14:23:43.266Z,5.90
2022-11-17T14:26:22.179Z,5.90
2022-11-17T14:28:51.248Z,5.90
2022-11-17T14:31:20.962Z,5.90
2022-11-17T14:33:50.512Z,5.90
2022-11-17T14:36:18.815Z,5.90
2022-11-17T14:38:47.378Z,5.90
2022-11-17T14:41:16.539Z,5.90
2022-11-17T14:43:44.902Z,5.80
2022-11-17T14:46:23.412Z,5.80
2022-11-17T14:48:51.844Z,5.80
2022-11-17T14:51:20.241Z,5.80
2022-11-17T14:53:48.604Z,5.70
2022-11-17T14:56:18.943Z,5.70
2022-11-17T14:58:48.647Z,5.80
2022-11-17T15:01:18.713Z,5.70
2022-11-17T15:03:48.521Z,5.70
2022-11-17T15:06:20.114Z,5.70
2022-11-17T15:08:48.894Z,5.70
2022-11-17T15:11:18.794Z,5.70
2022-11-17T15:13:47.149Z,5.70
2022-11-17T15:16:15.426Z,5.70
2022-11-17T15:18:47.749Z,5.70
2022-11-17T15:21:16.583Z,5.70
2022-11-17T15:23:45.012Z,5.70
2022-11-17T15:26:14.779Z,5.60
2022-11-17T15:28:43.219Z,5.60
2022-11-17T15:31:13.247Z,5.60
2022-11-17T15:33:42.062Z,5.70
2022-11-17T15:36:12.780Z,5.70
2022-11-17T15:38:41.329Z,5.60
2022-11-17T15:41:10.773Z,5.60
2022-11-17T15:43:40.549Z,5.60
2022-11-17T15:46:10.415Z,5.60
2022-11-17T15:48:42.183Z,5.50
2022-11-17T15:51:13.379Z,5.50
2022-11-17T15:53:42.027Z,5.50
2022-11-17T15:56:11.599Z,5.50
2022-11-17T15:58:40.364Z,5.50
2022-11-17T16:01:13.881Z,5.50
2022-11-17T16:03:43.123Z,5.50
2022-11-17T16:06:13.420Z,5.50
2022-11-17T16:08:42.051Z,5.40
2022-11-17T16:11:10.853Z,5.40
2022-11-17T16:13:39.135Z,5.40
2022-11-17T16:16:08.930Z,5.40
2022-11-17T16:18:38.570Z,5.40
2022-11-17T16:21:08.526Z,5.40
2022-11-17T16:23:41.670Z,5.40
2022-11-17T16:26:10.505Z,5.40
2022-11-17T16:28:39.024Z,5.30
2022-11-17T16:31:18.291Z,5.30
2022-11-17T16:33:49.204Z,5.20
2022-11-17T16:36:17.663Z,5.20
2022-11-17T16:39:00.251Z,5.20
2022-11-17T16:41:30.172Z,5.20
2022-11-17T16:43:58.528Z,5.20
2022-11-17T16:46:28.749Z,5.20
2022-11-17T16:48:57.597Z,5.20
2022-11-17T16:51:26.063Z,5.20
2022-11-17T16:53:59.458Z,5.10
2022-11-17T16:56:27.918Z,5.10
2022-11-17T16:58:56.277Z,5.00
2022-11-17T17:01:26.089Z,5.00
2022-11-17T17:03:57.194Z,5.00
2022-11-17T17:06:25.527Z,5.00
2022-11-17T17:08:59.467Z,5.00
2022-11-17T17:11:29.304Z,5.00
2022-11-17T17:13:57.756Z,5.00
2022-11-17T17:16:26.150Z,5.00
2022-11-17T17:18:59.451Z,5.00
2022-11-17T17:21:27.996Z,5.00
2022-11-17T17:23:57.633Z,5.00
2022-11-17T17:26:27.018Z,5.00
2022-11-17T17:28:57.105Z,5.00
2022-11-17T17:31:26.271Z,5.00
2022-11-17T17:33:55.840Z,5.00
2022-11-17T17:36:25.599Z,4.90
2022-11-17T17:38:56.384Z,4.90
2022-11-17T17:41:27.161Z,4.90
2022-11-17T17:43:56.772Z,4.90
2022-11-17T17:46:25.202Z,4.90
2022-11-17T17:48:53.580Z,4.90
2022-11-17T17:51:23.879Z,4.90
2022-11-17T17:53:52.277Z,4.80
2022-11-17T17:56:21.587Z,4.90
2022-11-17T17:58:51.896Z,4.90
2022-11-17T18:01:21.508Z,4.90
2022-11-17T18:03:51.324Z,4.80
2022-11-17T18:06:20.993Z,4.80
2022-11-17T18:08:49.422Z,4.80
2022-11-17T18:11:18.988Z,4.80
2022-11-17T18:13:48.387Z,4.80
2022-11-17T18:16:19.481Z,4.80
2022-11-17T18:18:47.838Z,4.80
2022-11-17T18:21:18.484Z,4.70
2022-11-17T18:23:46.838Z,4.70
2022-11-17T18:26:16.696Z,4.70
2022-11-17T18:28:46.152Z,4.60
2022-11-17T18:31:14.431Z,4.60
2022-11-17T18:33:45.181Z,4.60
2022-11-17T18:36:13.896Z,4.50
2022-11-17T18:38:42.191Z,4.50
2022-11-17T18:41:12.495Z,4.50
2022-11-17T18:43:41.475Z,4.40
2022-11-17T18:46:11.291Z,4.40
2022-11-17T18:48:40.843Z,4.40
2022-11-17T18:51:20.610Z,4.40
2022-11-17T18:53:49.500Z,4.40
2022-11-17T18:56:19.262Z,4.40
2022-11-17T18:58:47.624Z,4.40
2022-11-17T19:01:17.177Z,4.40
2022-11-17T19:03:46.416Z,4.40
2022-11-17T19:06:16.663Z,4.30
2022-11-17T19:08:44.957Z,4.30
2022-11-17T19:11:13.372Z,4.30
2022-11-17T19:13:42.699Z,4.30
2022-11-17T19:16:12.265Z,4.30
2022-11-17T19:18:40.533Z,4.30
2022-11-17T19:21:09.940Z,4.30
2022-11-17T19:23:40.387Z,4.30
2022-11-17T19:26:09.876Z,4.30
2022-11-17T19:28:39.280Z,4.30
2022-11-17T19:31:08.794Z,4.30
2022-11-17T19:33:38.564Z,4.30
2022-11-17T19:36:08.619Z,4.30
2022-11-17T19:38:38.518Z,4.30
2022-11-17T19:41:10.862Z,4.30
2022-11-17T19:43:44.819Z,4.30
2022-11-17T19:46:15.828Z,4.30
2022-11-17T19:48:44.147Z,4.30
2022-11-17T19:51:17.321Z,4.40
2022-11-17T19:53:45.795Z,4.30
2022-11-17T19:56:15.550Z,4.30
2022-11-17T19:58:44.519Z,4.30
2022-11-17T20:01:14.013Z,4.30
2022-11-17T20:03:42.569Z,4.30
2022-11-17T20:06:12.205Z,4.30
2022-11-17T20:08:40.501Z,4.20
2022-11-17T20:11:10.157Z,4.30
2022-11-17T20:13:40.058Z,4.20
2022-11-17T20:16:12.519Z,4.10
2022-11-17T20:18:41.715Z,4.10
2022-11-17T20:21:10.357Z,4.10
2022-11-17T20:23:39.334Z,4.10
2022-11-17T20:26:08.873Z,4.00
2022-11-17T20:28:39.206Z,4.00
2022-11-17T20:31:09.959Z,4.00
2022-11-17T20:33:38.813Z,4.00
2022-11-17T20:36:07.862Z,4.00
2022-11-17T20:38:36.914Z,4.00
2022-11-17T20:41:05.396Z,3.90
2022-11-17T20:43:34.140Z,3.90
2022-11-17T20:46:03.924Z,3.80
2022-11-17T20:48:34.122Z,3.80
2022-11-17T20:51:04.107Z,3.80
2022-11-17T20:53:32.785Z,3.80
2022-11-17T20:56:02.351Z,3.80
2022-11-17T20:58:30.959Z,3.80
2022-11-17T21:00:59.370Z,3.80
2022-11-17T21:03:29.065Z,3.70
2022-11-17T21:05:59.210Z,3.80
2022-11-17T21:08:29.638Z,3.80
2022-11-17T21:10:58.002Z,3.80
2022-11-17T21:13:26.369Z,3.70
2022-11-17T21:16:09.027Z,3.70
2022-11-17T21:18:39.747Z,3.70
2022-11-17T21:21:09.638Z,3.70
2022-11-17T21:23:38.173Z,3.70
2022-11-17T21:26:07.081Z,3.70
2022-11-17T21:28:35.526Z,3.70
2022-11-17T21:31:07.329Z,3.60
2022-11-17T21:33:35.861Z,3.60
2022-11-17T21:36:06.969Z,3.60
2022-11-17T21:38:35.250Z,3.60
2022-11-17T21:41:04.384Z,3.60
2022-11-17T21:43:32.782Z,3.60
2022-11-17T21:46:04.279Z,3.60
2022-11-17T21:48:32.596Z,3.60
2022-11-17T21:51:00.954Z,3.60
2022-11-17T21:53:30.944Z,3.60
2022-11-17T21:56:02.258Z,3.60
2022-11-17T21:58:31.632Z,3.60
2022-11-17T22:01:00.199Z,3.60
2022-11-17T22:03:28.519Z,3.60
2022-11-17T22:06:05.621Z,3.60
2022-11-17T22:08:37.176Z,3.60
2022-11-17T22:11:06.637Z,3.60
2022-11-17T22:13:34.996Z,3.60
2022-11-17T22:16:08.595Z,3.60
2022-11-17T22:18:36.817Z,3.50
2022-11-17T22:21:05.694Z,3.60
2022-11-17T22:23:35.507Z,3.60
2022-11-17T22:26:06.799Z,3.50
2022-11-17T22:28:35.172Z,3.50
2022-11-17T22:31:06.636Z,3.50
2022-11-17T22:33:34.885Z,3.50
2022-11-17T22:36:03.571Z,3.50
2022-11-17T22:38:31.909Z,3.50
2022-11-17T22:41:02.332Z,3.50
2022-11-17T22:43:31.667Z,3.50
2022-11-17T22:46:02.698Z,3.50
2022-11-17T22:48:30.984Z,3.50
2022-11-17T22:50:59.544Z,3.50
2022-11-17T22:53:28.019Z,3.50
2022-11-17T22:55:56.434Z,3.50
2022-11-17T22:58:26.115Z,3.50
2022-11-17T23:00:55.241Z,3.50
2022-11-17T23:03:23.630Z,3.50
2022-11-17T23:05:52.032Z,3.50
2022-11-17T23:08:21.040Z,3.50
2022-11-17T23:10:49.676Z,3.50
2022-11-17T23:13:17.931Z,3.50
2022-11-17T23:15:47.594Z,3.50
2022-11-17T23:18:15.817Z,3.40
2022-11-17T23:20:44.068Z,3.40
2022-11-17T23:23:12.345Z,3.40
2022-11-17T23:25:40.712Z,3.40
2022-11-17T23:28:09.380Z,3.30
2022-11-17T23:30:37.669Z,3.40
2022-11-17T23:33:07.307Z,3.40
2022-11-17T23:35:35.576Z,3.40
2022-11-17T23:38:03.895Z,3.30
2022-11-17T23:40:32.149Z,3.30
2022-11-17T23:43:00.421Z,3.30
2022-11-17T23:45:28.853Z,3.30
2022-11-17T23:47:57.104Z,3.30
